sensor_id;sensor_type;location;lat;lon;timestamp;P1;durP1;ratioP1;P2;durP2;ratioP2
16179;SDS011;8196;49.428;10.906;2024-01-15T00:00:34;22.60;;;11.13;;
16179;SDS011;8196;49.428;10.906;2024-01-15T00:03:02;28.83;;;11.83;;
16179;SDS011;8196;49.428;10.906;2024-01-15T00:05:29;23.13;;;9.77;;
16179;SDS011;8196;49.428;10.906;2024-01-15T00:07:56;30.90;;;10.27;;
16179;SDS011;8196;49.428;10.906;2024-01-15T00:10:23;27.67;;;11.37;;
16179;SDS011;8196;49.428;10.906;2024-01-15T00:12:50;28.60;;;10.17;;
16179;SDS011;8196;49.428;10.906;2024-01-15T00:15:18;25.43;;;10.47;;
16179;SDS011;8196;49.428;10.906;2024-01-15T00:17:45;29.83;;;10.50;;
16179;SDS011;8196;49.428;10.906;2024-01-15T00:20:12;28.27;;;11.40;;
16179;SDS011;8196;49.428;10.906;2024-01-15T00:22:40;25.60;;;9.67;;
16179;SDS011;8196;49.428;10.906;2024-01-15T00:25:07;27.43;;;9.07;;
16179;SDS011;8196;49.428;10.906;2024-01-15T00:27:34;26.00;;;10.30;;
16179;SDS011;8196;49.428;10.906;2024-01-15T00:30:01;26.87;;;10.53;;
16179;SDS011;8196;49.428;10.906;2024-01-15T00:32:29;23.63;;;8.43;;
16179;SDS011;8196;49.428;10.906;2024-01-15T00:34:57;21.00;;;9.53;;
16179;SDS011;8196;49.428;10.906;2024-01-15T00:37:24;23.03;;;9.30;;
16179;SDS011;8196;49.428;10.906;2024-01-15T00:39:51;21.30;;;10.03;;
16179;SDS011;8196;49.428;10.906;2024-01-15T00:42:18;27.80;;;11.23;;
16179;SDS011;8196;49.428;10.906;2024-01-15T00:44:46;30.07;;;11.43;;
16179;SDS011;8196;49.428;10.906;2024-01-15T00:47:13;31.70;;;10.87;;
16179;SDS011;8196;49.428;10.906;2024-01-15T00:49:40;26.07;;;10.67;;
16179;SDS011;8196;49.428;10.906;2024-01-15T00:52:07;21.40;;;9.97;;
16179;SDS011;8196;49.428;10.906;2024-01-15T00:54:34;18.73;;;7.43;;
16179;SDS011;8196;49.428;10.906;2024-01-15T00:57:02;28.60;;;11.23;;
16179;SDS011;8196;49.428;10.906;2024-01-15T00:59:29;29.20;;;12.07;;
16179;SDS011;8196;49.428;10.906;2024-01-15T01:01:56;26.90;;;11.13;;
16179;SDS011;8196;49.428;10.906;2024-01-15T01:04:23;25.90;;;10.90;;
16179;SDS011;8196;49.428;10.906;2024-01-15T01:06:51;19.63;;;8.90;;
16179;SDS011;8196;49.428;10.906;2024-01-15T01:09:18;30.60;;;11.00;;
16179;SDS011;8196;49.428;10.906;2024-01-15T01:11:45;27.33;;;9.43;;
16179;SDS011;8196;49.428;10.906;2024-01-15T01:14:13;28.23;;;10.73;;
16179;SDS011;8196;49.428;10.906;2024-01-15T01:16:40;22.70;;;9.67;;
16179;SDS011;8196;49.428;10.906;2024-01-15T01:19:07;23.10;;;9.57;;
16179;SDS011;8196;49.428;10.906;2024-01-15T01:21:35;24.70;;;10.30;;
16179;SDS011;8196;49.428;10.906;2024-01-15T01:24:02;23.83;;;10.07;;
16179;SDS011;8196;49.428;10.906;2024-01-15T01:26:30;30.23;;;11.33;;
16179;SDS011;8196;49.428;10.906;2024-01-15T01:28:57;20.77;;;8.77;;
16179;SDS011;8196;49.428;10.906;2024-01-15T01:31:25;32.00;;;10.83;;
16179;SDS011;8196;49.428;10.906;2024-01-15T01:33:52;30.87;;;10.10;;
16179;SDS011;8196;49.428;10.906;2024-01-15T01:36:19;22.63;;;8.17;;
16179;SDS011;8196;49.428;10.906;2024-01-15T01:38:47;22.67;;;8.97;;
16179;SDS011;8196;49.428;10.906;2024-01-15T01:41:14;19.90;;;8.13;;
16179;SDS011;8196;49.428;10.906;2024-01-15T01:43:41;23.00;;;9.00;;
16179;SDS011;8196;49.428;10.906;2024-01-15T01:46:08;27.67;;;10.27;;
16179;SDS011;8196;49.428;10.906;2024-01-15T01:48:36;22.87;;;9.03;;
16179;SDS011;8196;49.428;10.906;2024-01-15T01:51:03;27.57;;;9.67;;
16179;SDS011;8196;49.428;10.906;2024-01-15T01:53:32;21.30;;;9.53;;
16179;SDS011;8196;49.428;10.906;2024-01-15T01:56:01;26.07;;;10.37;;
16179;SDS011;8196;49.428;10.906;2024-01-15T01:58:29;20.87;;;9.37;;
16179;SDS011;8196;49.428;10.906;2024-01-15T02:00:57;27.43;;;10.80;;
16179;SDS011;8196;49.428;10.906;2024-01-15T02:03:26;18.10;;;8.77;;
16179;SDS011;8196;49.428;10.906;2024-01-15T02:05:54;23.33;;;9.50;;
16179;SDS011;8196;49.428;10.906;2024-01-15T02:08:22;19.13;;;8.87;;
16179;SDS011;8196;49.428;10.906;2024-01-15T02:13:16;21.13;;;9.80;;
16179;SDS011;8196;49.428;10.906;2024-01-15T02:15:44;28.07;;;9.77;;
16179;SDS011;8196;49.428;10.906;2024-01-15T02:18:11;20.40;;;9.17;;
16179;SDS011;8196;49.428;10.906;2024-01-15T02:20:39;22.07;;;8.43;;
16179;SDS011;8196;49.428;10.906;2024-01-15T02:25:38;23.53;;;9.30;;
16179;SDS011;8196;49.428;10.906;2024-01-15T02:28:07;25.67;;;9.33;;
16179;SDS011;8196;49.428;10.906;2024-01-15T02:30:37;21.13;;;9.57;;
16179;SDS011;8196;49.428;10.906;2024-01-15T02:33:08;19.30;;;8.87;;
16179;SDS011;8196;49.428;10.906;2024-01-15T02:35:35;23.87;;;10.23;;
16179;SDS011;8196;49.428;10.906;2024-01-15T02:38:03;21.17;;;8.53;;
16179;SDS011;8196;49.428;10.906;2024-01-15T02:40:30;26.77;;;9.37;;
16179;SDS011;8196;49.428;10.906;2024-01-15T02:42:58;18.43;;;7.87;;
16179;SDS011;8196;49.428;10.906;2024-01-15T02:45:25;21.77;;;8.27;;
16179;SDS011;8196;49.428;10.906;2024-01-15T02:47:52;16.20;;;8.20;;
16179;SDS011;8196;49.428;10.906;2024-01-15T02:50:19;18.93;;;8.17;;
16179;SDS011;8196;49.428;10.906;2024-01-15T02:52:46;15.77;;;7.23;;
16179;SDS011;8196;49.428;10.906;2024-01-15T02:55:14;17.30;;;8.23;;
16179;SDS011;8196;49.428;10.906;2024-01-15T02:57:41;20.50;;;8.13;;
16179;SDS011;8196;49.428;10.906;2024-01-15T03:00:08;16.03;;;7.13;;
16179;SDS011;8196;49.428;10.906;2024-01-15T03:02:36;14.63;;;7.40;;
16179;SDS011;8196;49.428;10.906;2024-01-15T03:05:09;19.77;;;7.87;;
16179;SDS011;8196;49.428;10.906;2024-01-15T03:07:36;22.90;;;8.43;;
16179;SDS011;8196;49.428;10.906;2024-01-15T03:10:04;14.23;;;7.10;;
16179;SDS011;8196;49.428;10.906;2024-01-15T03:12:32;19.47;;;8.00;;
16179;SDS011;8196;49.428;10.906;2024-01-15T03:14:59;23.17;;;8.33;;
16179;SDS011;8196;49.428;10.906;2024-01-15T03:17:26;17.17;;;8.13;;
16179;SDS011;8196;49.428;10.906;2024-01-15T03:19:53;16.17;;;6.77;;
16179;SDS011;8196;49.428;10.906;2024-01-15T03:22:23;15.80;;;6.77;;
16179;SDS011;8196;49.428;10.906;2024-01-15T03:24:50;15.57;;;7.13;;
16179;SDS011;8196;49.428;10.906;2024-01-15T03:27:18;17.93;;;6.40;;
16179;SDS011;8196;49.428;10.906;2024-01-15T03:29:45;12.47;;;6.23;;
16179;SDS011;8196;49.428;10.906;2024-01-15T03:32:12;15.00;;;6.53;;
16179;SDS011;8196;49.428;10.906;2024-01-15T03:34:39;14.43;;;6.70;;
16179;SDS011;8196;49.428;10.906;2024-01-15T03:37:09;15.57;;;6.60;;
16179;SDS011;8196;49.428;10.906;2024-01-15T03:39:36;16.10;;;7.13;;
16179;SDS011;8196;49.428;10.906;2024-01-15T03:42:03;13.60;;;6.70;;
16179;SDS011;8196;49.428;10.906;2024-01-15T03:44:31;17.23;;;7.03;;
16179;SDS011;8196;49.428;10.906;2024-01-15T03:46:58;14.60;;;7.20;;
16179;SDS011;8196;49.428;10.906;2024-01-15T03:49:27;18.20;;;6.70;;
16179;SDS011;8196;49.428;10.906;2024-01-15T03:51:54;12.83;;;6.17;;
16179;SDS011;8196;49.428;10.906;2024-01-15T03:54:21;12.97;;;6.40;;
16179;SDS011;8196;49.428;10.906;2024-01-15T03:56:48;17.47;;;7.33;;
16179;SDS011;8196;49.428;10.906;2024-01-15T03:59:16;16.43;;;6.87;;
16179;SDS011;8196;49.428;10.906;2024-01-15T04:01:49;19.00;;;6.33;;
16179;SDS011;8196;49.428;10.906;2024-01-15T04:04:19;12.57;;;5.70;;
16179;SDS011;8196;49.428;10.906;2024-01-15T04:06:47;17.00;;;7.10;;
16179;SDS011;8196;49.428;10.906;2024-01-15T04:09:14;16.07;;;6.67;;
16179;SDS011;8196;49.428;10.906;2024-01-15T04:11:41;12.77;;;6.53;;
16179;SDS011;8196;49.428;10.906;2024-01-15T04:14:08;13.23;;;5.83;;
16179;SDS011;8196;49.428;10.906;2024-01-15T04:16:37;14.53;;;5.53;;
16179;SDS011;8196;49.428;10.906;2024-01-15T04:19:04;13.30;;;6.37;;
16179;SDS011;8196;49.428;10.906;2024-01-15T04:21:31;15.00;;;6.97;;
16179;SDS011;8196;49.428;10.906;2024-01-15T04:23:59;13.95;;;7.20;;
16179;SDS011;8196;49.428;10.906;2024-01-15T04:26:26;14.67;;;6.63;;
16179;SDS011;8196;49.428;10.906;2024-01-15T04:28:53;18.27;;;7.43;;
16179;SDS011;8196;49.428;10.906;2024-01-15T04:31:22;16.63;;;7.13;;
16179;SDS011;8196;49.428;10.906;2024-01-15T04:33:49;18.10;;;7.27;;
16179;SDS011;8196;49.428;10.906;2024-01-15T04:36:17;17.17;;;7.07;;
16179;SDS011;8196;49.428;10.906;2024-01-15T04:38:44;14.20;;;6.70;;
16179;SDS011;8196;49.428;10.906;2024-01-15T04:41:12;14.17;;;6.10;;
16179;SDS011;8196;49.428;10.906;2024-01-15T04:43:39;17.07;;;7.30;;
16179;SDS011;8196;49.428;10.906;2024-01-15T04:46:06;13.07;;;7.20;;
16179;SDS011;8196;49.428;10.906;2024-01-15T04:48:33;15.73;;;7.47;;
16179;SDS011;8196;49.428;10.906;2024-01-15T04:51:03;15.90;;;7.40;;
16179;SDS011;8196;49.428;10.906;2024-01-15T04:53:30;16.33;;;7.23;;
16179;SDS011;8196;49.428;10.906;2024-01-15T04:55:58;18.67;;;7.70;;
16179;SDS011;8196;49.428;10.906;2024-01-15T04:58:25;15.10;;;7.20;;
16179;SDS011;8196;49.428;10.906;2024-01-15T05:00:53;20.23;;;8.17;;
16179;SDS011;8196;49.428;10.906;2024-01-15T05:03:21;17.53;;;7.10;;
16179;SDS011;8196;49.428;10.906;2024-01-15T05:05:48;14.70;;;7.27;;
16179;SDS011;8196;49.428;10.906;2024-01-15T05:08:15;17.83;;;7.40;;
16179;SDS011;8196;49.428;10.906;2024-01-15T05:10:42;17.03;;;7.90;;
16179;SDS011;8196;49.428;10.906;2024-01-15T05:15:37;19.33;;;7.83;;
16179;SDS011;8196;49.428;10.906;2024-01-15T05:18:04;16.43;;;7.17;;
16179;SDS011;8196;49.428;10.906;2024-01-15T05:20:33;12.17;;;7.40;;
16179;SDS011;8196;49.428;10.906;2024-01-15T05:23:00;15.63;;;7.33;;
16179;SDS011;8196;49.428;10.906;2024-01-15T05:25:27;15.13;;;7.73;;
16179;SDS011;8196;49.428;10.906;2024-01-15T05:27:54;13.97;;;6.13;;
16179;SDS011;8196;49.428;10.906;2024-01-15T05:30:22;15.07;;;5.87;;
16179;SDS011;8196;49.428;10.906;2024-01-15T05:32:49;17.80;;;7.27;;
16179;SDS011;8196;49.428;10.906;2024-01-15T05:35:16;18.00;;;6.87;;
16179;SDS011;8196;49.428;10.906;2024-01-15T05:37:44;16.37;;;8.87;;
16179;SDS011;8196;49.428;10.906;2024-01-15T05:40:12;14.97;;;6.83;;
16179;SDS011;8196;49.428;10.906;2024-01-15T05:42:40;16.67;;;7.73;;
16179;SDS011;8196;49.428;10.906;2024-01-15T05:45:07;15.77;;;7.40;;
16179;SDS011;8196;49.428;10.906;2024-01-15T05:47:34;17.93;;;6.77;;
16179;SDS011;8196;49.428;10.906;2024-01-15T05:50:02;16.67;;;7.83;;
16179;SDS011;8196;49.428;10.906;2024-01-15T05:52:29;14.07;;;6.97;;
16179;SDS011;8196;49.428;10.906;2024-01-15T05:54:56;13.57;;;6.07;;
16179;SDS011;8196;49.428;10.906;2024-01-15T05:57:23;14.33;;;6.43;;
16179;SDS011;8196;49.428;10.906;2024-01-15T05:59:51;13.37;;;6.00;;
16179;SDS011;8196;49.428;10.906;2024-01-15T06:04:45;15.33;;;6.63;;
16179;SDS011;8196;49.428;10.906;2024-01-15T06:07:12;12.80;;;5.90;;
16179;SDS011;8196;49.428;10.906;2024-01-15T06:09:40;12.60;;;6.57;;
16179;SDS011;8196;49.428;10.906;2024-01-15T06:12:07;14.30;;;6.40;;
16179;SDS011;8196;49.428;10.906;2024-01-15T06:14:34;14.13;;;7.30;;
16179;SDS011;8196;49.428;10.906;2024-01-15T06:17:01;18.20;;;7.70;;
16179;SDS011;8196;49.428;10.906;2024-01-15T06:19:29;14.87;;;6.93;;
16179;SDS011;8196;49.428;10.906;2024-01-15T06:21:56;14.37;;;7.00;;
16179;SDS011;8196;49.428;10.906;2024-01-15T06:24:23;12.90;;;7.10;;
16179;SDS011;8196;49.428;10.906;2024-01-15T06:26:51;13.17;;;6.97;;
16179;SDS011;8196;49.428;10.906;2024-01-15T06:29:18;12.70;;;6.67;;
16179;SDS011;8196;49.428;10.906;2024-01-15T06:31:45;16.43;;;7.93;;
16179;SDS011;8196;49.428;10.906;2024-01-15T06:34:15;16.47;;;7.40;;
16179;SDS011;8196;49.428;10.906;2024-01-15T06:36:42;14.70;;;6.50;;
16179;SDS011;8196;49.428;10.906;2024-01-15T06:39:10;18.50;;;6.40;;
16179;SDS011;8196;49.428;10.906;2024-01-15T06:41:37;11.73;;;5.60;;
16179;SDS011;8196;49.428;10.906;2024-01-15T06:44:10;12.70;;;6.00;;
16179;SDS011;8196;49.428;10.906;2024-01-15T06:46:41;11.87;;;5.90;;
16179;SDS011;8196;49.428;10.906;2024-01-15T06:49:09;12.30;;;5.60;;
16179;SDS011;8196;49.428;10.906;2024-01-15T06:51:36;15.17;;;6.30;;
16179;SDS011;8196;49.428;10.906;2024-01-15T06:54:04;11.70;;;6.00;;
16179;SDS011;8196;49.428;10.906;2024-01-15T06:56:31;13.03;;;5.93;;
16179;SDS011;8196;49.428;10.906;2024-01-15T06:58:59;14.47;;;6.77;;
16179;SDS011;8196;49.428;10.906;2024-01-15T07:01:26;13.43;;;5.70;;
16179;SDS011;8196;49.428;10.906;2024-01-15T07:03:53;16.07;;;6.60;;
16179;SDS011;8196;49.428;10.906;2024-01-15T07:06:21;11.20;;;5.93;;
16179;SDS011;8196;49.428;10.906;2024-01-15T07:08:48;13.57;;;5.70;;
16179;SDS011;8196;49.428;10.906;2024-01-15T07:11:16;15.43;;;6.90;;
16179;SDS011;8196;49.428;10.906;2024-01-15T07:13:43;11.87;;;5.90;;
16179;SDS011;8196;49.428;10.906;2024-01-15T07:16:10;13.60;;;6.47;;
16179;SDS011;8196;49.428;10.906;2024-01-15T07:18:37;13.33;;;6.40;;
16179;SDS011;8196;49.428;10.906;2024-01-15T07:21:05;11.73;;;7.70;;
16179;SDS011;8196;49.428;10.906;2024-01-15T07:23:32;15.20;;;6.80;;
16179;SDS011;8196;49.428;10.906;2024-01-15T07:25:59;13.50;;;7.27;;
16179;SDS011;8196;49.428;10.906;2024-01-15T07:28:28;13.07;;;7.03;;
16179;SDS011;8196;49.428;10.906;2024-01-15T07:30:56;14.47;;;6.00;;
16179;SDS011;8196;49.428;10.906;2024-01-15T07:33:24;15.70;;;7.10;;
16179;SDS011;8196;49.428;10.906;2024-01-15T07:35:52;14.77;;;7.03;;
16179;SDS011;8196;49.428;10.906;2024-01-15T07:38:19;14.00;;;6.90;;
16179;SDS011;8196;49.428;10.906;2024-01-15T07:40:46;13.53;;;6.20;;
16179;SDS011;8196;49.428;10.906;2024-01-15T07:43:15;13.63;;;6.93;;
16179;SDS011;8196;49.428;10.906;2024-01-15T07:45:42;14.30;;;6.53;;
16179;SDS011;8196;49.428;10.906;2024-01-15T07:48:11;14.07;;;6.17;;
16179;SDS011;8196;49.428;10.906;2024-01-15T07:50:39;17.23;;;7.43;;
16179;SDS011;8196;49.428;10.906;2024-01-15T07:53:06;16.20;;;7.07;;
16179;SDS011;8196;49.428;10.906;2024-01-15T07:55:33;13.43;;;6.13;;
16179;SDS011;8196;49.428;10.906;2024-01-15T07:58:00;12.30;;;5.97;;
16179;SDS011;8196;49.428;10.906;2024-01-15T08:00:41;11.33;;;6.13;;
16179;SDS011;8196;49.428;10.906;2024-01-15T08:03:08;12.03;;;6.40;;
16179;SDS011;8196;49.428;10.906;2024-01-15T08:05:36;7.70;;;4.77;;
16179;SDS011;8196;49.428;10.906;2024-01-15T08:08:03;13.20;;;6.53;;
16179;SDS011;8196;49.428;10.906;2024-01-15T08:10:30;11.93;;;6.73;;
16179;SDS011;8196;49.428;10.906;2024-01-15T08:12:57;13.60;;;6.23;;
16179;SDS011;8196;49.428;10.906;2024-01-15T08:15:25;11.67;;;6.30;;
16179;SDS011;8196;49.428;10.906;2024-01-15T08:17:57;11.70;;;6.47;;
16179;SDS011;8196;49.428;10.906;2024-01-15T08:20:25;10.70;;;6.57;;
16179;SDS011;8196;49.428;10.906;2024-01-15T08:22:52;17.73;;;6.60;;
16179;SDS011;8196;49.428;10.906;2024-01-15T08:25:20;16.87;;;6.27;;
16179;SDS011;8196;49.428;10.906;2024-01-15T08:27:47;13.10;;;6.40;;
16179;SDS011;8196;49.428;10.906;2024-01-15T08:30:14;13.30;;;6.97;;
16179;SDS011;8196;49.428;10.906;2024-01-15T08:32:42;14.93;;;7.27;;
16179;SDS011;8196;49.428;10.906;2024-01-15T08:35:09;11.30;;;6.23;;
16179;SDS011;8196;49.428;10.906;2024-01-15T08:37:37;15.83;;;7.57;;
16179;SDS011;8196;49.428;10.906;2024-01-15T08:40:05;15.30;;;7.53;;
16179;SDS011;8196;49.428;10.906;2024-01-15T08:42:32;13.73;;;6.73;;
16179;SDS011;8196;49.428;10.906;2024-01-15T08:44:59;11.13;;;6.37;;
16179;SDS011;8196;49.428;10.906;2024-01-15T08:47:26;13.03;;;6.43;;
16179;SDS011;8196;49.428;10.906;2024-01-15T08:49:54;12.85;;;6.22;;
16179;SDS011;8196;49.428;10.906;2024-01-15T08:52:23;13.20;;;6.67;;
16179;SDS011;8196;49.428;10.906;2024-01-15T08:54:50;15.07;;;7.20;;
16179;SDS011;8196;49.428;10.906;2024-01-15T08:57:17;9.93;;;5.50;;
16179;SDS011;8196;49.428;10.906;2024-01-15T08:59:45;13.37;;;6.67;;
16179;SDS011;8196;49.428;10.906;2024-01-15T09:02:14;13.03;;;6.27;;
16179;SDS011;8196;49.428;10.906;2024-01-15T09:04:42;10.73;;;5.70;;
16179;SDS011;8196;49.428;10.906;2024-01-15T09:07:09;14.50;;;7.10;;
16179;SDS011;8196;49.428;10.906;2024-01-15T09:09:36;11.68;;;6.13;;
16179;SDS011;8196;49.428;10.906;2024-01-15T09:12:04;11.20;;;5.97;;
16179;SDS011;8196;49.428;10.906;2024-01-15T09:14:31;13.50;;;5.97;;
16179;SDS011;8196;49.428;10.906;2024-01-15T09:17:03;15.00;;;6.30;;
16179;SDS011;8196;49.428;10.906;2024-01-15T09:19:31;13.57;;;6.70;;
16179;SDS011;8196;49.428;10.906;2024-01-15T09:21:59;12.38;;;6.43;;
16179;SDS011;8196;49.428;10.906;2024-01-15T09:24:26;12.93;;;6.30;;
16179;SDS011;8196;49.428;10.906;2024-01-15T09:26:54;11.82;;;6.50;;
16179;SDS011;8196;49.428;10.906;2024-01-15T09:29:22;15.13;;;8.02;;
16179;SDS011;8196;49.428;10.906;2024-01-15T09:31:50;11.90;;;6.30;;
16179;SDS011;8196;49.428;10.906;2024-01-15T09:34:18;10.57;;;5.88;;
16179;SDS011;8196;49.428;10.906;2024-01-15T09:36:45;10.30;;;5.97;;
16179;SDS011;8196;49.428;10.906;2024-01-15T09:39:13;13.10;;;6.75;;
16179;SDS011;8196;49.428;10.906;2024-01-15T09:41:42;13.53;;;6.47;;
16179;SDS011;8196;49.428;10.906;2024-01-15T09:44:09;10.48;;;6.43;;
16179;SDS011;8196;49.428;10.906;2024-01-15T09:46:37;10.33;;;5.67;;
16179;SDS011;8196;49.428;10.906;2024-01-15T09:49:05;11.88;;;6.32;;
16179;SDS011;8196;49.428;10.906;2024-01-15T09:51:32;12.13;;;6.63;;
16179;SDS011;8196;49.428;10.906;2024-01-15T09:53:59;12.35;;;6.70;;
16179;SDS011;8196;49.428;10.906;2024-01-15T09:56:27;11.07;;;5.97;;
16179;SDS011;8196;49.428;10.906;2024-01-15T09:58:54;10.38;;;5.30;;
16179;SDS011;8196;49.428;10.906;2024-01-15T10:01:21;14.00;;;5.85;;
16179;SDS011;8196;49.428;10.906;2024-01-15T10:03:49;7.75;;;5.32;;
16179;SDS011;8196;49.428;10.906;2024-01-15T10:06:17;9.90;;;6.30;;
16179;SDS011;8196;49.428;10.906;2024-01-15T10:08:50;12.17;;;5.80;;
16179;SDS011;8196;49.428;10.906;2024-01-15T10:11:17;7.35;;;4.40;;
16179;SDS011;8196;49.428;10.906;2024-01-15T10:13:44;10.10;;;5.43;;
16179;SDS011;8196;49.428;10.906;2024-01-15T10:16:16;11.70;;;5.80;;
16179;SDS011;8196;49.428;10.906;2024-01-15T10:18:43;9.87;;;5.70;;
16179;SDS011;8196;49.428;10.906;2024-01-15T10:21:10;11.03;;;5.60;;
16179;SDS011;8196;49.428;10.906;2024-01-15T10:23:38;10.37;;;5.60;;
16179;SDS011;8196;49.428;10.906;2024-01-15T10:26:05;11.40;;;5.40;;
16179;SDS011;8196;49.428;10.906;2024-01-15T10:28:32;8.93;;;5.77;;
16179;SDS011;8196;49.428;10.906;2024-01-15T10:31:00;9.67;;;5.53;;
16179;SDS011;8196;49.428;10.906;2024-01-15T10:33:27;7.57;;;5.03;;
16179;SDS011;8196;49.428;10.906;2024-01-15T10:35:55;9.77;;;4.68;;
16179;SDS011;8196;49.428;10.906;2024-01-15T10:38:23;8.80;;;5.40;;
16179;SDS011;8196;49.428;10.906;2024-01-15T10:40:51;11.35;;;5.07;;
16179;SDS011;8196;49.428;10.906;2024-01-15T10:43:19;10.88;;;5.60;;
16179;SDS011;8196;49.428;10.906;2024-01-15T10:45:47;9.53;;;5.33;;
16179;SDS011;8196;49.428;10.906;2024-01-15T10:48:16;7.83;;;4.90;;
16179;SDS011;8196;49.428;10.906;2024-01-15T10:50:44;9.60;;;5.30;;
16179;SDS011;8196;49.428;10.906;2024-01-15T10:53:12;11.35;;;5.93;;
16179;SDS011;8196;49.428;10.906;2024-01-15T10:55:39;10.30;;;5.97;;
16179;SDS011;8196;49.428;10.906;2024-01-15T10:58:08;10.48;;;5.45;;
16179;SDS011;8196;49.428;10.906;2024-01-15T11:00:36;11.70;;;5.93;;
16179;SDS011;8196;49.428;10.906;2024-01-15T11:03:04;9.07;;;6.03;;
16179;SDS011;8196;49.428;10.906;2024-01-15T11:05:48;9.25;;;5.55;;
16179;SDS011;8196;49.428;10.906;2024-01-15T11:08:16;10.65;;;5.97;;
16179;SDS011;8196;49.428;10.906;2024-01-15T11:10:46;9.07;;;5.82;;
16179;SDS011;8196;49.428;10.906;2024-01-15T11:13:19;10.57;;;6.10;;
16179;SDS011;8196;49.428;10.906;2024-01-15T11:18:32;10.27;;;6.03;;
16179;SDS011;8196;49.428;10.906;2024-01-15T11:23:46;8.32;;;5.35;;
16179;SDS011;8196;49.428;10.906;2024-01-15T11:26:28;9.73;;;5.40;;
16179;SDS011;8196;49.428;10.906;2024-01-15T11:28:55;10.95;;;5.72;;
16179;SDS011;8196;49.428;10.906;2024-01-15T11:31:27;8.40;;;5.53;;
16179;SDS011;8196;49.428;10.906;2024-01-15T11:33:57;8.68;;;4.93;;
16179;SDS011;8196;49.428;10.906;2024-01-15T11:39:48;10.27;;;5.50;;
16179;SDS011;8196;49.428;10.906;2024-01-15T11:42:03;10.00;;;5.73;;
16179;SDS011;8196;49.428;10.906;2024-01-15T11:44:30;11.25;;;5.53;;
16179;SDS011;8196;49.428;10.906;2024-01-15T11:46:58;11.07;;;6.03;;
16179;SDS011;8196;49.428;10.906;2024-01-15T11:51:57;10.43;;;5.57;;
16179;SDS011;8196;49.428;10.906;2024-01-15T11:54:25;8.70;;;5.15;;
16179;SDS011;8196;49.428;10.906;2024-01-15T11:56:54;9.10;;;5.45;;
16179;SDS011;8196;49.428;10.906;2024-01-15T11:59:22;8.32;;;4.85;;
16179;SDS011;8196;49.428;10.906;2024-01-15T12:01:49;7.03;;;4.65;;
16179;SDS011;8196;49.428;10.906;2024-01-15T12:04:16;7.47;;;4.70;;
16179;SDS011;8196;49.428;10.906;2024-01-15T12:06:46;13.30;;;5.45;;
16179;SDS011;8196;49.428;10.906;2024-01-15T12:09:13;8.57;;;4.82;;
16179;SDS011;8196;49.428;10.906;2024-01-15T12:11:42;8.35;;;5.78;;
16179;SDS011;8196;49.428;10.906;2024-01-15T12:14:12;6.28;;;4.63;;
16179;SDS011;8196;49.428;10.906;2024-01-15T12:16:39;7.78;;;4.70;;
16179;SDS011;8196;49.428;10.906;2024-01-15T12:19:07;10.38;;;5.72;;
16179;SDS011;8196;49.428;10.906;2024-01-15T12:21:34;8.73;;;5.60;;
16179;SDS011;8196;49.428;10.906;2024-01-15T12:24:02;10.77;;;4.82;;
16179;SDS011;8196;49.428;10.906;2024-01-15T12:26:29;8.10;;;4.50;;
16179;SDS011;8196;49.428;10.906;2024-01-15T12:28:56;7.07;;;4.53;;
16179;SDS011;8196;49.428;10.906;2024-01-15T12:31:24;8.45;;;5.10;;
16179;SDS011;8196;49.428;10.906;2024-01-15T12:33:56;8.48;;;4.57;;
16179;SDS011;8196;49.428;10.906;2024-01-15T12:36:24;8.75;;;5.13;;
16179;SDS011;8196;49.428;10.906;2024-01-15T12:38:51;9.45;;;5.85;;
16179;SDS011;8196;49.428;10.906;2024-01-15T12:41:18;9.52;;;5.32;;
16179;SDS011;8196;49.428;10.906;2024-01-15T12:43:46;8.50;;;5.15;;
16179;SDS011;8196;49.428;10.906;2024-01-15T12:46:13;8.20;;;4.88;;
16179;SDS011;8196;49.428;10.906;2024-01-15T12:48:41;7.85;;;5.25;;
16179;SDS011;8196;49.428;10.906;2024-01-15T12:51:09;6.82;;;4.72;;
16179;SDS011;8196;49.428;10.906;2024-01-15T12:53:36;8.02;;;5.03;;
16179;SDS011;8196;49.428;10.906;2024-01-15T12:56:04;7.22;;;4.85;;
16179;SDS011;8196;49.428;10.906;2024-01-15T12:58:31;8.20;;;5.07;;
16179;SDS011;8196;49.428;10.906;2024-01-15T13:00:58;6.95;;;4.50;;
16179;SDS011;8196;49.428;10.906;2024-01-15T13:03:26;7.03;;;4.22;;
16179;SDS011;8196;49.428;10.906;2024-01-15T13:05:53;7.28;;;4.40;;
16179;SDS011;8196;49.428;10.906;2024-01-15T13:08:21;6.45;;;3.83;;
16179;SDS011;8196;49.428;10.906;2024-01-15T13:10:51;6.78;;;4.93;;
16179;SDS011;8196;49.428;10.906;2024-01-15T13:13:22;7.20;;;4.57;;
16179;SDS011;8196;49.428;10.906;2024-01-15T13:15:49;10.65;;;5.07;;
16179;SDS011;8196;49.428;10.906;2024-01-15T13:18:17;7.18;;;5.20;;
16179;SDS011;8196;49.428;10.906;2024-01-15T13:20:44;6.00;;;3.97;;
16179;SDS011;8196;49.428;10.906;2024-01-15T13:23:12;6.45;;;4.38;;
16179;SDS011;8196;49.428;10.906;2024-01-15T13:25:39;5.45;;;3.70;;
16179;SDS011;8196;49.428;10.906;2024-01-15T13:28:06;6.35;;;4.10;;
16179;SDS011;8196;49.428;10.906;2024-01-15T13:30:34;6.87;;;4.87;;
16179;SDS011;8196;49.428;10.906;2024-01-15T13:33:01;7.68;;;4.55;;
16179;SDS011;8196;49.428;10.906;2024-01-15T13:35:31;7.32;;;4.32;;
16179;SDS011;8196;49.428;10.906;2024-01-15T13:37:58;9.70;;;4.97;;
16179;SDS011;8196;49.428;10.906;2024-01-15T13:40:25;7.90;;;3.90;;
16179;SDS011;8196;49.428;10.906;2024-01-15T13:42:53;7.43;;;4.47;;
16179;SDS011;8196;49.428;10.906;2024-01-15T13:47:50;6.28;;;4.40;;
16179;SDS011;8196;49.428;10.906;2024-01-15T13:50:17;9.68;;;4.10;;
16179;SDS011;8196;49.428;10.906;2024-01-15T13:52:44;7.18;;;4.18;;
16179;SDS011;8196;49.428;10.906;2024-01-15T13:55:11;5.38;;;3.35;;
16179;SDS011;8196;49.428;10.906;2024-01-15T13:57:39;6.07;;;3.72;;
16179;SDS011;8196;49.428;10.906;2024-01-15T14:00:06;6.63;;;3.63;;
16179;SDS011;8196;49.428;10.906;2024-01-15T14:02:37;4.90;;;3.65;;
16179;SDS011;8196;49.428;10.906;2024-01-15T14:05:05;5.90;;;3.88;;
16179;SDS011;8196;49.428;10.906;2024-01-15T14:07:32;7.25;;;4.47;;
16179;SDS011;8196;49.428;10.906;2024-01-15T14:09:59;6.65;;;4.32;;
16179;SDS011;8196;49.428;10.906;2024-01-15T14:12:27;8.20;;;4.18;;
16179;SDS011;8196;49.428;10.906;2024-01-15T14:14:54;5.93;;;3.55;;
16179;SDS011;8196;49.428;10.906;2024-01-15T14:17:21;8.35;;;4.07;;
16179;SDS011;8196;49.428;10.906;2024-01-15T14:19:48;8.90;;;4.35;;
16179;SDS011;8196;49.428;10.906;2024-01-15T14:22:18;6.18;;;4.28;;
16179;SDS011;8196;49.428;10.906;2024-01-15T14:24:45;5.88;;;3.83;;
16179;SDS011;8196;49.428;10.906;2024-01-15T14:27:12;6.68;;;4.20;;
16179;SDS011;8196;49.428;10.906;2024-01-15T14:29:39;6.15;;;4.65;;
16179;SDS011;8196;49.428;10.906;2024-01-15T14:32:07;5.57;;;3.80;;
16179;SDS011;8196;49.428;10.906;2024-01-15T14:34:34;4.80;;;3.65;;
16179;SDS011;8196;49.428;10.906;2024-01-15T14:37:03;6.05;;;3.55;;
16179;SDS011;8196;49.428;10.906;2024-01-15T14:39:30;6.65;;;3.65;;
16179;SDS011;8196;49.428;10.906;2024-01-15T14:42:00;5.38;;;3.97;;
16179;SDS011;8196;49.428;10.906;2024-01-15T14:44:27;6.28;;;3.72;;
16179;SDS011;8196;49.428;10.906;2024-01-15T14:46:55;13.75;;;7.18;;
16179;SDS011;8196;49.428;10.906;2024-01-15T14:49:24;17.58;;;9.82;;
16179;SDS011;8196;49.428;10.906;2024-01-15T14:51:52;6.53;;;4.93;;
16179;SDS011;8196;49.428;10.906;2024-01-15T14:54:19;5.75;;;3.78;;
16179;SDS011;8196;49.428;10.906;2024-01-15T14:56:49;8.90;;;4.63;;
16179;SDS011;8196;49.428;10.906;2024-01-15T14:59:17;6.22;;;3.50;;
16179;SDS011;8196;49.428;10.906;2024-01-15T15:01:44;5.97;;;3.42;;